MSC Luisa — H9XU — position and weather

sailwx.info

Track history (hours):
 
Tides and Currents Weather Stations Pressure Air Temp Water Temp Dewpoint Dewpoint Depression Visibility Wind Speed Wind Dir Waves Ship Positions

MSC Luisa

Last reported at 2016-Nov-30 03:29 UTC. Time now 2016-Dec-05 08:27 UTC.
Position S 28°02' W 048°20'.

Length 300 m; draft 9.2 m.

Type: Ship. MMSI: 355308000.

Date/timePositionNaut miles runAvg speedWind from/ knotsBaromVisibWave heightAir tempDewpointWater temp
2016-Nov-30 03:29S 28°02' W 048°20'1718.6
2016-Nov-30 02:33S 27°47' W 048°11'1918.5
2016-Nov-30 01:33S 27°30' W 048°02'15318.6
2016-Nov-29 17:19S 25°11' W 046°50'1418.7
2016-Nov-29 16:32S 24°57' W 046°44'1919.2
2016-Nov-29 15:34S 24°40' W 046°35'2019.5
2016-Nov-29 14:33S 24°22' W 046°28'1919.2
2016-Nov-29 13:33S 24°04' W 046°22'8 8.1
2016-Nov-29 12:33S 23°56' W 046°19'2 1.7
2016-Nov-29 11:33S 23°55' W 046°21'0 0.0
2016-Nov-29 10:32S 23°55' W 046°21'0 0.0
2016-Nov-29 09:31S 23°55' W 046°21'0 0.0
2016-Nov-29 08:33S 23°55' W 046°21'0 0.0
2016-Nov-29 07:32S 23°55' W 046°21'0 0.0
2016-Nov-29 06:31S 23°55' W 046°21'0 0.0
2016-Nov-29 05:33S 23°55' W 046°21'0 0.0
2016-Nov-29 04:33S 23°55' W 046°21'0 0.0
2016-Nov-29 03:33S 23°55' W 046°21'0 0.0
2016-Nov-29 02:33S 23°55' W 046°21'0 0.0
2016-Nov-29 01:33S 23°55' W 046°21'0 0.0
2016-Nov-29 00:33S 23°55' W 046°21'0 0.0
2016-Nov-28 23:33S 23°55' W 046°21'0 0.0
2016-Nov-28 22:33S 23°55' W 046°21'0 0.0
2016-Nov-28 21:33S 23°55' W 046°21'0 0.0
2016-Nov-28 20:33S 23°55' W 046°21'0 0.0
2016-Nov-28 19:33S 23°55' W 046°21'0 0.0
2016-Nov-28 18:32S 23°55' W 046°21'0 0.0
2016-Nov-28 17:33S 23°55' W 046°21'0 0.0
2016-Nov-28 16:27S 23°55' W 046°21'0 0.0
2016-Nov-28 15:33S 23°55' W 046°21'0 0.0
2016-Nov-28 14:32S 23°55' W 046°21'0 0.0
2016-Nov-28 13:34S 23°55' W 046°21'0 0.0
2016-Nov-28 12:34S 23°55' W 046°21'0 0.0
2016-Nov-28 11:34S 23°55' W 046°21'4 4.1
2016-Nov-28 10:33S 23°58' W 046°18'9 8.7
2016-Nov-28 09:33S 24°06' W 046°22'1616.1
2016-Nov-28 08:34S 24°22' W 046°23'2 1.7
2016-Nov-28 07:33S 24°20' W 046°22'6 6.2
2016-Nov-28 06:33S 24°24' W 046°27'7 6.9
2016-Nov-28 05:33S 24°29' W 046°32'2 1.8
2016-Nov-28 04:33S 24°29' W 046°30'2 1.8
2016-Nov-28 03:33S 24°28' W 046°28'2 2.0
2016-Nov-28 02:33S 24°27' W 046°26'2 1.9
2016-Nov-28 01:33S 24°26' W 046°24'2 1.9
2016-Nov-28 00:33S 24°26' W 046°22'2 1.9
2016-Nov-27 23:33S 24°25' W 046°20'2 1.5
2016-Nov-27 22:33S 24°24' W 046°19'1 0.7
2016-Nov-27 21:33S 24°25' W 046°20'8 8.1
2016-Nov-27 20:33S 24°30' W 046°14'3 3.3
2016-Nov-27 19:33S 24°31' W 046°10'8 8.3
2016-Nov-27 18:33S 24°29' W 046°01'8 8.3
2016-Nov-27 17:33S 24°27' W 045°52'9 8.6
2016-Nov-27 16:33S 24°25' W 045°43'9 8.5
2016-Nov-27 15:32S 24°22' W 045°34'13 6.6
2016-Nov-27 13:32S 24°17' W 045°21'31 7.7
2016-Nov-27 09:30S 24°07' W 044°49'12710.6
2016-Nov-26 21:33S 23°25' W 042°38'4811.3
2016-Nov-26 17:18S 23°04' W 041°51'911.2
2016-Nov-26 16:28S 22°58' W 041°44'2210.8
2016-Nov-26 14:28S 22°45' W 041°25'  
Track history (hours):
 
Tides and Currents Weather Stations Pressure Air Temp Water Temp Dewpoint Dewpoint Depression Visibility Wind Speed Wind Dir Waves Ship Positions

MSC Luisa

Last reported at 2016-Nov-30 03:29 UTC. Time now 2016-Dec-05 08:27 UTC.
Position S 28°02' W 048°20'.

Length 300 m; draft 9.2 m.

Type: Ship. MMSI: 355308000.

Date/timePositionNaut miles runAvg speedWind from/ knotsBaromVisibWave heightAir tempDewpointWater temp
2016-Nov-30 03:29S 28°02' W 048°20'1718.6
2016-Nov-30 02:33S 27°47' W 048°11'1918.5
2016-Nov-30 01:33S 27°30' W 048°02'15318.6
2016-Nov-29 17:19S 25°11' W 046°50'1418.7
2016-Nov-29 16:32S 24°57' W 046°44'1919.2
2016-Nov-29 15:34S 24°40' W 046°35'2019.5
2016-Nov-29 14:33S 24°22' W 046°28'1919.2
2016-Nov-29 13:33S 24°04' W 046°22'8 8.1
2016-Nov-29 12:33S 23°56' W 046°19'2 1.7
2016-Nov-29 11:33S 23°55' W 046°21'0 0.0
2016-Nov-29 10:32S 23°55' W 046°21'0 0.0
2016-Nov-29 09:31S 23°55' W 046°21'0 0.0
2016-Nov-29 08:33S 23°55' W 046°21'0 0.0
2016-Nov-29 07:32S 23°55' W 046°21'0 0.0
2016-Nov-29 06:31S 23°55' W 046°21'0 0.0
2016-Nov-29 05:33S 23°55' W 046°21'0 0.0
2016-Nov-29 04:33S 23°55' W 046°21'0 0.0
2016-Nov-29 03:33S 23°55' W 046°21'0 0.0
2016-Nov-29 02:33S 23°55' W 046°21'0 0.0
2016-Nov-29 01:33S 23°55' W 046°21'0 0.0
2016-Nov-29 00:33S 23°55' W 046°21'0 0.0
2016-Nov-28 23:33S 23°55' W 046°21'0 0.0
2016-Nov-28 22:33S 23°55' W 046°21'0 0.0
2016-Nov-28 21:33S 23°55' W 046°21'0 0.0
2016-Nov-28 20:33S 23°55' W 046°21'0 0.0
2016-Nov-28 19:33S 23°55' W 046°21'0 0.0
2016-Nov-28 18:32S 23°55' W 046°21'0 0.0
2016-Nov-28 17:33S 23°55' W 046°21'0 0.0
2016-Nov-28 16:27S 23°55' W 046°21'0 0.0
2016-Nov-28 15:33S 23°55' W 046°21'0 0.0
2016-Nov-28 14:32S 23°55' W 046°21'0 0.0
2016-Nov-28 13:34S 23°55' W 046°21'0 0.0
2016-Nov-28 12:34S 23°55' W 046°21'0 0.0
2016-Nov-28 11:34S 23°55' W 046°21'4 4.1
2016-Nov-28 10:33S 23°58' W 046°18'9 8.7
2016-Nov-28 09:33S 24°06' W 046°22'1616.1
2016-Nov-28 08:34S 24°22' W 046°23'2 1.7
2016-Nov-28 07:33S 24°20' W 046°22'6 6.2
2016-Nov-28 06:33S 24°24' W 046°27'7 6.9
2016-Nov-28 05:33S 24°29' W 046°32'2 1.8
2016-Nov-28 04:33S 24°29' W 046°30'2 1.8
2016-Nov-28 03:33S 24°28' W 046°28'2 2.0
2016-Nov-28 02:33S 24°27' W 046°26'2 1.9
2016-Nov-28 01:33S 24°26' W 046°24'2 1.9
2016-Nov-28 00:33S 24°26' W 046°22'2 1.9
2016-Nov-27 23:33S 24°25' W 046°20'2 1.5
2016-Nov-27 22:33S 24°24' W 046°19'1 0.7
2016-Nov-27 21:33S 24°25' W 046°20'8 8.1
2016-Nov-27 20:33S 24°30' W 046°14'3 3.3
2016-Nov-27 19:33S 24°31' W 046°10'8 8.3
2016-Nov-27 18:33S 24°29' W 046°01'8 8.3
2016-Nov-27 17:33S 24°27' W 045°52'9 8.6
2016-Nov-27 16:33S 24°25' W 045°43'9 8.5
2016-Nov-27 15:32S 24°22' W 045°34'13 6.6
2016-Nov-27 13:32S 24°17' W 045°21'31 7.7
2016-Nov-27 09:30S 24°07' W 044°49'12710.6
2016-Nov-26 21:33S 23°25' W 042°38'4811.3
2016-Nov-26 17:18S 23°04' W 041°51'911.2
2016-Nov-26 16:28S 22°58' W 041°44'2210.8
2016-Nov-26 14:28S 22°45' W 041°25'  

Dump ship's entire track history